Time;durP1;ratioP1;P1;durP2;ratioP2;P2;SDS_P1;SDS_P2;PMS_P1;PMS_P2;Temp;Humidity;BMP_temperature;BMP_pressure;BME280_temperature;BME280_humidity;BME280_pressure;Samples;Min_cycle;Max_cycle;Signal;HPM_P1;HPM_P2
2023/07/03 00:00:36;;;;;;;12.63;4.38;;;18.60;99.90;;;;;;5026404;28;20458;-65
2023/07/03 00:03:02;;;;;;;20.30;4.55;;;18.70;99.90;;;;;;5020604;28;20447;-66
2023/07/03 00:05:29;;;;;;;15.88;4.82;;;18.70;99.90;;;;;;5017077;28;20026;-66
2023/07/03 00:07:55;;;;;;;17.42;4.43;;;18.60;99.90;;;;;;5019684;28;20447;-66
2023/07/03 00:10:21;;;;;;;16.20;4.85;;;18.60;99.90;;;;;;5019375;28;20026;-65
2023/07/03 00:12:47;;;;;;;24.65;5.50;;;18.60;99.90;;;;;;5021064;28;20013;-67
2023/07/03 00:15:13;;;;;;;19.58;5.78;;;18.60;99.90;;;;;;5016437;28;20362;-66
2023/07/03 00:17:39;;;;;;;18.60;5.10;;;18.60;99.90;;;;;;5013734;28;20041;-66
2023/07/03 00:20:07;;;;;;;16.42;4.57;;;18.60;99.90;;;;;;5014772;28;20033;-65
2023/07/03 00:22:33;;;;;;;17.15;5.35;;;18.60;99.90;;;;;;5018596;28;20489;-66
2023/07/03 00:24:59;;;;;;;15.80;4.00;;;18.40;99.90;;;;;;5017725;27;20061;-66
2023/07/03 00:27:24;;;;;;;22.55;5.82;;;18.40;99.90;;;;;;5021250;28;20054;-65
2023/07/03 00:29:50;;;;;;;19.30;4.90;;;18.40;99.90;;;;;;5016852;28;20075;-65
2023/07/03 00:32:16;;;;;;;18.63;4.75;;;18.40;99.90;;;;;;5013733;28;20046;-65
2023/07/03 00:34:41;;;;;;;21.08;4.85;;;18.40;99.90;;;;;;5016083;28;20025;-65
2023/07/03 00:37:07;;;;;;;18.35;4.28;;;18.50;99.90;;;;;;5020556;28;20374;-65
2023/07/03 00:39:33;;;;;;;21.75;4.75;;;18.50;99.90;;;;;;5014199;28;20029;-65
2023/07/03 00:41:58;;;;;;;20.55;4.45;;;18.50;99.90;;;;;;5020564;28;20100;-65
2023/07/03 00:44:24;;;;;;;20.42;5.07;;;18.50;99.90;;;;;;5019061;28;20541;-65
2023/07/03 00:46:51;;;;;;;13.98;4.93;;;18.40;99.90;;;;;;5016774;27;20036;-65
2023/07/03 00:49:20;;;;;;;18.85;4.75;;;18.40;99.90;;;;;;5018388;28;20048;-65
2023/07/03 00:51:55;;;;;;;21.10;5.57;;;18.40;99.90;;;;;;5018193;28;20030;-65
2023/07/03 00:54:21;;;;;;;18.80;5.18;;;18.30;99.90;;;;;;5018811;28;20025;-65
2023/07/03 00:56:47;;;;;;;19.65;5.38;;;18.40;99.90;;;;;;5020063;28;20025;-65
2023/07/03 00:59:14;;;;;;;24.10;5.65;;;18.50;99.90;;;;;;5022039;28;20022;-66
2023/07/03 01:01:57;;;;;;;21.58;5.38;;;18.40;99.90;;;;;;5015520;28;20029;-65
2023/07/03 01:04:34;;;;;;;15.02;5.47;;;18.40;99.90;;;;;;5015658;28;20458;-65
2023/07/03 01:07:13;;;;;;;21.35;5.50;;;18.40;99.90;;;;;;5022870;28;20059;-65
2023/07/03 01:09:50;;;;;;;23.30;5.78;;;18.40;99.90;;;;;;5027790;28;20022;-66
2023/07/03 01:12:18;;;;;;;16.15;4.80;;;18.40;99.90;;;;;;5018373;28;20393;-65
2023/07/03 01:14:45;;;;;;;19.00;4.97;;;18.40;99.90;;;;;;5019404;28;20018;-65
2023/07/03 01:17:13;;;;;;;18.80;5.28;;;18.30;99.90;;;;;;5019674;28;20041;-65
2023/07/03 01:19:42;;;;;;;17.63;5.63;;;18.40;99.90;;;;;;5017775;28;20095;-65
2023/07/03 01:22:15;;;;;;;19.60;5.57;;;18.40;99.90;;;;;;5018989;28;20029;-65
2023/07/03 01:24:44;;;;;;;23.77;5.63;;;18.30;99.90;;;;;;5016399;28;20032;-65
2023/07/03 01:27:12;;;;;;;20.63;5.88;;;18.20;99.90;;;;;;5025262;28;21558;-65
2023/07/03 01:29:40;;;;;;;22.80;4.78;;;18.20;99.90;;;;;;5017834;28;20033;-65
2023/07/03 01:32:09;;;;;;;23.15;5.50;;;18.20;99.90;;;;;;5015121;28;20053;-66
2023/07/03 01:34:37;;;;;;;28.60;5.95;;;18.20;99.90;;;;;;5016341;28;20034;-65
2023/07/03 01:37:04;;;;;;;18.83;5.93;;;18.20;99.90;;;;;;5017574;28;20036;-65
2023/07/03 01:39:30;;;;;;;19.80;4.90;;;18.10;99.90;;;;;;5020095;28;20033;-64
2023/07/03 01:41:58;;;;;;;23.10;5.18;;;18.10;99.90;;;;;;5020028;28;20030;-65
2023/07/03 01:44:23;;;;;;;20.05;4.80;;;18.10;99.90;;;;;;5022747;28;20025;-64
2023/07/03 01:46:49;;;;;;;20.52;5.75;;;18.00;99.90;;;;;;5016055;28;20388;-64
2023/07/03 01:49:15;;;;;;;19.10;5.28;;;17.90;99.90;;;;;;5025905;28;20034;-64
2023/07/03 01:51:57;;;;;;;21.70;5.05;;;18.10;99.90;;;;;;5019300;28;20018;-64
2023/07/03 01:54:46;;;;;;;22.30;6.53;;;18.00;99.90;;;;;;5019752;28;20454;-64
2023/07/03 01:57:16;;;;;;;24.02;5.80;;;18.00;99.90;;;;;;5016052;28;20402;-65
2023/07/03 01:59:42;;;;;;;18.40;4.75;;;17.90;99.90;;;;;;5017462;28;20021;-65
2023/07/03 02:02:21;;;;;;;16.88;5.88;;;17.90;99.90;;;;;;5032671;27;20500;-66
2023/07/03 02:05:03;;;;;;;37.63;6.05;;;17.90;99.90;;;;;;5015794;28;20030;-65
2023/07/03 02:07:30;;;;;;;24.92;5.75;;;17.80;99.90;;;;;;5016912;28;20461;-65
2023/07/03 02:09:56;;;;;;;23.77;5.80;;;17.80;99.90;;;;;;5015983;28;20018;-65
2023/07/03 02:12:22;;;;;;;24.15;5.28;;;17.90;99.90;;;;;;5016024;28;20021;-67
2023/07/03 02:14:48;;;;;;;21.17;5.82;;;17.90;99.90;;;;;;5023268;28;20033;-65
2023/07/03 02:17:13;;;;;;;24.90;6.78;;;18.00;99.90;;;;;;5017110;28;20042;-64
2023/07/03 02:19:39;;;;;;;31.38;6.25;;;18.00;99.90;;;;;;5013124;28;20104;-65
2023/07/03 02:22:06;;;;;;;18.42;5.60;;;17.90;99.90;;;;;;5016000;28;20075;-65
2023/07/03 02:24:32;;;;;;;22.48;6.25;;;18.00;99.90;;;;;;5018159;28;20485;-65
2023/07/03 02:26:58;;;;;;;32.78;6.45;;;17.90;99.90;;;;;;5013957;28;20060;-66
2023/07/03 02:29:23;;;;;;;20.27;5.65;;;17.90;99.90;;;;;;5018013;28;20078;-65
2023/07/03 02:31:49;;;;;;;32.38;6.45;;;17.80;99.90;;;;;;5014441;28;20033;-66
2023/07/03 02:34:15;;;;;;;26.63;5.65;;;17.90;99.90;;;;;;5019992;28;20075;-65
2023/07/03 02:36:41;;;;;;;29.15;6.88;;;17.90;99.90;;;;;;5017419;28;20083;-65
2023/07/03 02:39:09;;;;;;;29.73;6.68;;;17.80;99.90;;;;;;5016400;28;20064;-65
2023/07/03 02:41:34;;;;;;;27.45;6.57;;;17.80;99.90;;;;;;5017739;28;20047;-65
2023/07/03 02:44:00;;;;;;;26.42;6.32;;;17.70;99.90;;;;;;5018083;28;20537;-65
2023/07/03 02:46:26;;;;;;;26.27;6.07;;;17.70;99.90;;;;;;5016609;28;21165;-65
2023/07/03 02:48:51;;;;;;;25.25;5.32;;;17.70;99.90;;;;;;5023114;28;20018;-65
2023/07/03 02:51:18;;;;;;;30.88;6.93;;;17.70;99.90;;;;;;5019392;28;20025;-64
2023/07/03 02:53:44;;;;;;;36.03;7.50;;;17.60;99.90;;;;;;5017116;28;20138;-67
2023/07/03 02:56:10;;;;;;;27.73;7.18;;;17.50;99.90;;;;;;5013700;28;20021;-65
2023/07/03 02:58:36;;;;;;;25.58;6.38;;;17.50;99.90;;;;;;5021876;28;20053;-65
2023/07/03 03:01:02;;;;;;;32.25;7.05;;;17.60;99.90;;;;;;5018706;28;20642;-65
2023/07/03 03:03:29;;;;;;;30.70;6.35;;;17.60;99.90;;;;;;5016875;28;20655;-64
2023/07/03 03:05:55;;;;;;;26.52;6.47;;;17.50;99.90;;;;;;5015797;28;20151;-65
2023/07/03 03:08:22;;;;;;;26.65;6.80;;;17.50;99.90;;;;;;5027558;28;20018;-65
2023/07/03 03:10:48;;;;;;;27.65;6.55;;;17.50;99.90;;;;;;5015799;28;20034;-65
2023/07/03 03:13:14;;;;;;;36.05;7.03;;;17.40;99.90;;;;;;5024026;28;20040;-65
2023/07/03 03:15:40;;;;;;;29.38;6.03;;;17.50;99.90;;;;;;5018638;28;20029;-64
2023/07/03 03:18:06;;;;;;;32.53;6.63;;;17.50;99.90;;;;;;5023282;28;20029;-64
2023/07/03 03:20:32;;;;;;;31.25;6.53;;;17.40;99.90;;;;;;5022151;28;20029;-64
2023/07/03 03:22:58;;;;;;;30.50;7.45;;;17.40;99.90;;;;;;5019589;28;20022;-66
2023/07/03 03:25:24;;;;;;;35.05;6.45;;;17.40;99.90;;;;;;5021024;28;20025;-64
2023/07/03 03:27:50;;;;;;;24.52;6.72;;;17.50;99.90;;;;;;5020544;28;20071;-64
2023/07/03 03:30:15;;;;;;;27.80;6.00;;;17.40;99.90;;;;;;5019578;28;20053;-64
2023/07/03 03:32:42;;;;;;;25.60;6.90;;;17.40;99.90;;;;;;5023005;28;20577;-64
2023/07/03 03:35:08;;;;;;;23.10;6.25;;;17.40;99.90;;;;;;5018514;28;20042;-64
2023/07/03 03:37:34;;;;;;;28.27;6.43;;;17.40;99.90;;;;;;5020678;28;20456;-64
2023/07/03 03:39:59;;;;;;;27.30;6.65;;;17.50;99.90;;;;;;5020001;28;20030;-65
2023/07/03 03:42:25;;;;;;;31.27;7.82;;;17.40;99.90;;;;;;5020145;28;20045;-65
2023/07/03 03:44:51;;;;;;;27.83;7.32;;;17.50;99.90;;;;;;5105965;27;20026;-64
2023/07/03 03:47:19;;;;;;;22.23;6.47;;;17.50;99.90;;;;;;5019737;28;20029;-65
2023/07/03 03:49:45;;;;;;;25.63;6.97;;;17.60;99.90;;;;;;5016489;27;20056;-65
2023/07/03 03:52:10;;;;;;;28.60;6.20;;;17.60;99.90;;;;;;5018608;28;20652;-64
2023/07/03 03:54:36;;;;;;;24.15;6.45;;;17.50;99.90;;;;;;5019788;28;20488;-64
2023/07/03 03:57:03;;;;;;;25.40;6.80;;;17.40;99.90;;;;;;5022734;28;20046;-64
2023/07/03 03:59:28;;;;;;;30.20;7.65;;;17.40;99.90;;;;;;5021760;27;20033;-65
2023/07/03 04:01:54;;;;;;;26.95;6.90;;;17.40;99.90;;;;;;5018796;28;20032;-65
2023/07/03 04:04:20;;;;;;;31.17;7.32;;;17.50;99.90;;;;;;5019666;28;20026;-65
2023/07/03 04:06:45;;;;;;;36.22;7.65;;;17.50;99.90;;;;;;5016551;28;20497;-65
2023/07/03 04:09:12;;;;;;;26.85;6.93;;;17.50;99.90;;;;;;5021573;28;20053;-64
2023/07/03 04:11:38;;;;;;;30.52;6.68;;;17.50;99.90;;;;;;5025176;28;20029;-65
2023/07/03 04:14:04;;;;;;;32.92;7.60;;;17.50;99.90;;;;;;5020291;28;20040;-65
2023/07/03 04:16:31;;;;;;;29.13;6.82;;;17.50;99.90;;;;;;5024474;28;20522;-64
2023/07/03 04:18:56;;;;;;;34.85;8.00;;;17.50;99.90;;;;;;5017279;28;20038;-65
2023/07/03 04:21:23;;;;;;;29.63;6.47;;;17.50;99.90;;;;;;5030139;28;20045;-64
2023/07/03 04:23:48;;;;;;;30.63;7.80;;;17.50;99.90;;;;;;5025697;28;20041;-64
2023/07/03 04:26:15;;;;;;;27.05;6.80;;;17.50;99.90;;;;;;5019033;28;20026;-64
2023/07/03 04:28:41;;;;;;;34.17;7.82;;;17.50;99.90;;;;;;5019794;28;20025;-64
2023/07/03 04:31:07;;;;;;;27.60;6.85;;;17.50;99.90;;;;;;5019314;28;20052;-65
2023/07/03 04:33:32;;;;;;;31.15;7.75;;;17.60;99.90;;;;;;5019524;28;20057;-65
2023/07/03 04:35:58;;;;;;;36.58;8.05;;;17.60;99.90;;;;;;5024072;28;20030;-64
2023/07/03 04:38:24;;;;;;;26.35;7.22;;;17.60;99.90;;;;;;5016080;28;20042;-66
2023/07/03 04:40:51;;;;;;;28.80;7.00;;;17.50;99.90;;;;;;5017195;28;20418;-64
2023/07/03 04:43:17;;;;;;;24.95;6.95;;;17.50;99.90;;;;;;5023668;28;20022;-64
2023/07/03 04:45:49;;;;;;;29.90;8.32;;;17.60;99.90;;;;;;5019352;28;20029;-65
2023/07/03 04:48:16;;;;;;;25.83;6.63;;;17.70;99.90;;;;;;5017937;28;20034;-64
2023/07/03 04:50:42;;;;;;;22.05;6.60;;;17.70;99.90;;;;;;5023864;28;20014;-65
2023/07/03 04:53:08;;;;;;;32.35;7.45;;;17.70;99.90;;;;;;5016929;28;20041;-67
2023/07/03 04:55:35;;;;;;;32.53;7.32;;;17.70;99.90;;;;;;5018230;28;20018;-65
2023/07/03 04:58:02;;;;;;;28.85;7.82;;;17.70;99.90;;;;;;5017204;28;20045;-65
2023/07/03 05:00:28;;;;;;;29.30;7.28;;;17.70;99.90;;;;;;5027759;28;20031;-65
2023/07/03 05:02:58;;;;;;;28.30;7.38;;;17.80;99.90;;;;;;5026658;28;20113;-66
2023/07/03 05:05:25;;;;;;;31.60;6.85;;;17.90;99.90;;;;;;5018263;28;20049;-65
2023/07/03 05:07:51;;;;;;;25.00;6.78;;;17.90;99.90;;;;;;5016867;28;20026;-65
2023/07/03 05:10:17;;;;;;;28.27;6.72;;;17.90;99.90;;;;;;5021070;28;20036;-65
2023/07/03 05:12:44;;;;;;;28.13;8.13;;;17.90;99.90;;;;;;5019123;28;20394;-68
2023/07/03 05:15:12;;;;;;;37.58;8.23;;;17.90;99.90;;;;;;5023796;28;20029;-65
2023/07/03 05:17:38;;;;;;;25.48;7.20;;;18.00;99.90;;;;;;5022442;28;20038;-65
2023/07/03 05:20:10;;;;;;;29.25;7.25;;;18.00;99.90;;;;;;5018879;28;20013;-68
2023/07/03 05:22:37;;;;;;;29.25;7.72;;;18.00;99.90;;;;;;5023447;28;20021;-67
2023/07/03 05:25:04;;;;;;;29.27;7.80;;;18.00;99.90;;;;;;5013661;28;20595;-66
2023/07/03 05:27:29;;;;;;;27.95;6.82;;;18.00;99.90;;;;;;5019041;28;20108;-65
2023/07/03 05:29:55;;;;;;;28.50;6.88;;;18.00;99.90;;;;;;5021687;28;20116;-65
2023/07/03 05:32:21;;;;;;;28.73;6.85;;;18.00;99.90;;;;;;5023227;28;20025;-65
2023/07/03 05:34:46;;;;;;;29.25;7.55;;;17.90;99.90;;;;;;5014487;28;20052;-65
2023/07/03 05:37:12;;;;;;;27.83;7.20;;;17.90;99.90;;;;;;5018206;28;20033;-65
2023/07/03 05:39:37;;;;;;;28.63;7.75;;;18.00;99.90;;;;;;5016454;28;20065;-65
2023/07/03 05:42:03;;;;;;;28.08;7.50;;;17.90;99.90;;;;;;5016233;28;20411;-65
2023/07/03 05:44:29;;;;;;;29.13;7.22;;;18.00;99.90;;;;;;5019906;28;20022;-65
2023/07/03 05:46:55;;;;;;;27.48;7.15;;;18.00;99.90;;;;;;5016773;28;20122;-65
2023/07/03 05:49:20;;;;;;;32.40;7.70;;;18.00;99.90;;;;;;5016526;28;20470;-64
2023/07/03 05:51:46;;;;;;;27.50;7.72;;;18.00;99.90;;;;;;5018756;28;20541;-65
2023/07/03 05:54:12;;;;;;;26.75;7.20;;;18.00;99.90;;;;;;5018270;28;20064;-64
2023/07/03 05:56:38;;;;;;;24.55;7.68;;;18.00;99.90;;;;;;5015051;28;20370;-65
2023/07/03 05:59:03;;;;;;;26.58;7.53;;;18.00;99.90;;;;;;5015754;28;20056;-65
2023/07/03 06:01:29;;;;;;;23.85;7.10;;;17.90;99.90;;;;;;5018478;28;20047;-64
2023/07/03 06:03:55;;;;;;;27.17;6.88;;;18.00;99.90;;;;;;5019550;28;20036;-64
2023/07/03 06:06:20;;;;;;;22.23;6.80;;;18.10;99.90;;;;;;5018657;28;20074;-64
2023/07/03 06:08:46;;;;;;;17.75;5.88;;;18.10;99.90;;;;;;5014483;28;20156;-64
2023/07/03 06:11:12;;;;;;;23.58;6.78;;;18.10;99.90;;;;;;5015944;28;20386;-65
2023/07/03 06:13:37;;;;;;;25.35;7.28;;;18.10;99.90;;;;;;5013991;28;20113;-64
2023/07/03 06:16:03;;;;;;;20.75;6.30;;;18.20;99.90;;;;;;5016197;28;20052;-64
2023/07/03 06:18:29;;;;;;;30.55;6.68;;;18.10;99.90;;;;;;5018166;28;20474;-65
2023/07/03 06:20:55;;;;;;;21.75;6.78;;;18.10;99.90;;;;;;5017864;28;20540;-64
2023/07/03 06:23:20;;;;;;;22.48;6.53;;;18.20;99.90;;;;;;5020066;28;20025;-64
2023/07/03 06:25:46;;;;;;;21.35;5.80;;;18.30;99.90;;;;;;5019707;28;20041;-65
2023/07/03 06:28:13;;;;;;;19.67;5.97;;;18.30;99.90;;;;;;5024220;28;20099;-65
2023/07/03 06:30:38;;;;;;;21.67;6.38;;;18.50;99.90;;;;;;5014068;28;20055;-64
2023/07/03 06:33:04;;;;;;;26.38;6.35;;;18.50;99.90;;;;;;5022211;28;20065;-66
2023/07/03 06:35:30;;;;;;;25.88;6.63;;;18.50;99.90;;;;;;5017268;28;20030;-64
2023/07/03 06:37:58;;;;;;;28.02;7.05;;;18.60;99.90;;;;;;5018697;28;20042;-65
2023/07/03 06:40:24;;;;;;;24.02;7.10;;;18.50;99.90;;;;;;5016352;28;20470;-64
2023/07/03 06:42:52;;;;;;;21.30;6.13;;;18.60;99.90;;;;;;5016870;28;20113;-65
2023/07/03 06:45:17;;;;;;;18.05;5.63;;;18.60;99.90;;;;;;5016202;28;20146;-70
2023/07/03 06:47:43;;;;;;;21.85;5.63;;;18.60;99.90;;;;;;5016785;28;20112;-71
2023/07/03 06:50:09;;;;;;;24.13;6.25;;;18.70;99.90;;;;;;5017973;28;20030;-72
2023/07/03 06:52:36;;;;;;;23.67;6.38;;;18.80;99.90;;;;;;5021217;28;20029;-73
2023/07/03 06:55:02;;;;;;;14.93;4.93;;;18.90;99.90;;;;;;5024009;28;20386;-65
2023/07/03 06:57:28;;;;;;;21.83;5.88;;;18.90;99.90;;;;;;5019789;28;20107;-71
2023/07/03 06:59:54;;;;;;;21.45;5.78;;;19.10;99.90;;;;;;5021144;28;20474;-65
2023/07/03 07:02:19;;;;;;;19.45;5.25;;;19.10;99.90;;;;;;5021816;28;20026;-65
2023/07/03 07:04:45;;;;;;;18.20;5.63;;;19.30;99.90;;;;;;5016287;28;20033;-66
2023/07/03 07:07:11;;;;;;;18.75;5.90;;;19.50;99.90;;;;;;5017426;28;20041;-64
2023/07/03 07:09:36;;;;;;;17.80;6.15;;;19.50;99.90;;;;;;5017933;28;20057;-65
2023/07/03 07:12:02;;;;;;;18.88;5.38;;;19.50;99.90;;;;;;5025540;28;20500;-65
2023/07/03 07:14:28;;;;;;;22.05;5.32;;;19.60;99.90;;;;;;5014790;28;20470;-65
2023/07/03 07:16:53;;;;;;;19.17;5.35;;;19.70;99.90;;;;;;5019257;28;20033;-66
2023/07/03 07:19:19;;;;;;;18.95;5.55;;;19.80;99.90;;;;;;5021132;28;20474;-65
2023/07/03 07:21:45;;;;;;;21.35;5.43;;;20.00;99.90;;;;;;5022524;28;20029;-64
2023/07/03 07:24:22;;;;;;;18.00;5.00;;;19.80;99.90;;;;;;5025647;28;20592;-64
2023/07/03 07:26:50;;;;;;;17.48;4.50;;;19.90;99.90;;;;;;5019899;28;20037;-64
2023/07/03 07:29:16;;;;;;;19.98;4.60;;;19.80;99.90;;;;;;5015941;28;20056;-64
2023/07/03 07:31:42;;;;;;;19.70;5.32;;;19.80;99.90;;;;;;5025086;28;20108;-65
2023/07/03 07:34:10;;;;;;;21.35;5.38;;;20.00;99.90;;;;;;5017029;28;20206;-65
2023/07/03 07:36:38;;;;;;;20.52;5.35;;;20.00;99.90;;;;;;5017643;28;20082;-64
2023/07/03 07:39:04;;;;;;;15.95;5.15;;;20.10;99.90;;;;;;5025489;28;20511;-66
2023/07/03 07:41:31;;;;;;;14.18;4.22;;;20.10;99.90;;;;;;4988432;28;20029;-65
2023/07/03 07:43:58;;;;;;;24.00;5.90;;;20.20;99.90;;;;;;5011801;28;20064;-65
2023/07/03 07:46:28;;;;;;;20.15;4.53;;;20.20;99.90;;;;;;5016165;28;20108;-65
2023/07/03 07:48:55;;;;;;;15.20;4.70;;;20.30;99.90;;;;;;5014811;28;20030;-64
2023/07/03 07:51:22;;;;;;;20.70;4.82;;;20.20;99.90;;;;;;5016304;28;20029;-65
2023/07/03 07:53:47;;;;;;;15.45;4.78;;;20.30;99.90;;;;;;5014365;28;20032;-66
2023/07/03 07:56:13;;;;;;;15.93;4.30;;;20.30;99.90;;;;;;5017814;28;20092;-65
2023/07/03 07:58:39;;;;;;;14.23;3.72;;;20.40;99.90;;;;;;5012275;28;20037;-65
2023/07/03 08:01:06;;;;;;;13.95;4.40;;;20.40;99.90;;;;;;5017719;28;20072;-67
2023/07/03 08:03:32;;;;;;;18.40;4.85;;;20.30;99.90;;;;;;5011585;28;20036;-65
2023/07/03 08:06:00;;;;;;;17.27;4.03;;;20.30;99.90;;;;;;5016143;28;20493;-66
2023/07/03 08:08:26;;;;;;;12.90;4.18;;;20.40;99.90;;;;;;5012866;28;20520;-66
2023/07/03 08:10:57;;;;;;;20.73;5.18;;;20.50;99.90;;;;;;5012891;28;20022;-65
2023/07/03 08:13:24;;;;;;;14.60;4.25;;;20.60;99.90;;;;;;5014767;28;20029;-67
2023/07/03 08:15:51;;;;;;;16.42;4.68;;;20.60;99.90;;;;;;5013148;28;20030;-65
2023/07/03 08:18:17;;;;;;;18.45;5.07;;;20.60;99.90;;;;;;5011593;28;20042;-66
2023/07/03 08:20:44;;;;;;;11.75;4.55;;;20.60;99.90;;;;;;5013415;28;20022;-65
2023/07/03 08:23:10;;;;;;;19.48;5.00;;;20.60;99.90;;;;;;5014474;28;20033;-65
2023/07/03 08:25:36;;;;;;;17.67;5.25;;;20.70;99.90;;;;;;5015745;28;20026;-66
2023/07/03 08:28:02;;;;;;;20.23;4.90;;;20.70;99.90;;;;;;5010762;28;20034;-66
2023/07/03 08:30:28;;;;;;;16.40;5.15;;;20.60;99.90;;;;;;5014424;28;20049;-65
2023/07/03 08:32:54;;;;;;;16.38;5.65;;;20.50;99.90;;;;;;5013570;28;20057;-66
2023/07/03 08:35:20;;;;;;;14.38;5.18;;;20.50;99.90;;;;;;5013456;28;20026;-65
2023/07/03 08:58:44;;;;;;;19.48;5.80;;;19.90;99.90;;;;;;5106427;27;20390;-69
2023/07/03 09:01:16;;;;;;;15.70;5.65;;;20.00;99.90;;;;;;5102160;27;20026;-67
2023/07/03 09:03:50;;;;;;;18.23;6.45;;;20.20;99.90;;;;;;5114857;28;20100;-67
2023/07/03 09:06:28;;;;;;;17.15;4.78;;;20.40;99.90;;;;;;5111623;27;20035;-68
2023/07/03 09:09:01;;;;;;;18.35;5.85;;;20.80;99.90;;;;;;5110390;28;20016;-66
2023/07/03 09:11:30;;;;;;;18.33;5.28;;;21.20;99.90;;;;;;5105740;27;20036;-67
2023/07/03 09:14:00;;;;;;;12.13;5.50;;;21.40;99.90;;;;;;5106232;28;20019;-66
2023/07/03 09:16:26;;;;;;;15.80;5.15;;;21.60;99.90;;;;;;5107761;27;20073;-68
2023/07/03 09:18:58;;;;;;;13.23;6.00;;;21.80;99.90;;;;;;5104239;28;20042;-68
2023/07/03 09:21:27;;;;;;;16.30;5.88;;;21.80;99.90;;;;;;5108195;28;20379;-67
2023/07/03 09:24:03;;;;;;;21.15;5.25;;;21.90;99.90;;;;;;5108139;27;20028;-67
2023/07/03 09:27:13;;;;;;;13.07;5.15;;;22.00;99.90;;;;;;5103406;28;20023;-67
2023/07/03 09:29:40;;;;;;;17.83;5.47;;;22.00;99.90;;;;;;5108795;28;20608;-67
2023/07/03 09:32:05;;;;;;;16.00;4.93;;;22.10;99.90;;;;;;5108219;28;20487;-67
2023/07/03 09:35:16;;;;;;;15.10;5.70;;;22.30;99.90;;;;;;5111528;27;20105;-67
2023/07/03 09:37:48;;;;;;;15.88;5.85;;;22.20;99.90;;;;;;5102051;28;20409;-68
2023/07/03 09:40:25;;;;;;;12.90;5.10;;;22.20;99.90;;;;;;5111132;28;20016;-68
2023/07/03 09:42:51;;;;;;;12.55;5.10;;;22.20;99.90;;;;;;5111461;28;20031;-67
2023/07/03 09:45:20;;;;;;;13.27;5.07;;;22.20;99.90;;;;;;5107769;28;20024;-67
2023/07/03 09:47:52;;;;;;;13.68;5.15;;;22.10;99.90;;;;;;5107315;28;20388;-68
2023/07/03 09:50:24;;;;;;;;;;;22.10;99.90;;;;;;5112780;28;20019;-68
2023/07/03 09:52:56;;;;;;;15.45;5.07;;;21.90;99.90;;;;;;5113612;28;19908;-68
2023/07/03 09:55:22;;;;;;;;;;;22.10;99.90;;;;;;5115224;28;20505;-68
2023/07/03 09:57:48;;;;;;;13.65;5.32;;;22.20;99.90;;;;;;5112293;27;19987;-68
2023/07/03 10:00:23;;;;;;;13.70;4.57;;;22.10;99.90;;;;;;5098649;28;20045;-67
2023/07/03 10:02:55;;;;;;;13.43;4.75;;;22.20;99.90;;;;;;5091758;28;20027;-67
2023/07/03 10:05:31;;;;;;;12.47;4.77;;;22.20;99.90;;;;;;5094527;28;21267;-68
2023/07/03 10:08:03;;;;;;;14.57;4.28;;;22.20;99.90;;;;;;5098697;28;20051;-69
2023/07/03 10:10:33;;;;;;;15.27;4.95;;;22.40;99.90;;;;;;5088758;28;20024;-68
2023/07/03 10:13:12;;;;;;;9.30;4.00;;;22.30;99.90;;;;;;5096712;28;20055;-68
2023/07/03 10:15:41;;;;;;;9.98;4.10;;;22.40;99.90;;;;;;5099646;28;20023;-68
2023/07/03 10:18:27;;;;;;;13.00;5.05;;;22.50;99.90;;;;;;5098770;28;20036;-68
2023/07/03 10:20:54;;;;;;;14.60;4.32;;;22.40;99.90;;;;;;5096949;28;20024;-68
2023/07/03 10:23:26;;;;;;;12.05;4.63;;;22.60;99.90;;;;;;5090884;28;20388;-67
2023/07/03 10:26:16;;;;;;;14.05;5.00;;;22.70;99.90;;;;;;5093687;28;21618;-67
2023/07/03 10:28:46;;;;;;;14.30;4.50;;;23.00;99.90;;;;;;5089255;28;20115;-67
2023/07/03 10:31:23;;;;;;;11.70;4.20;;;23.30;99.90;;;;;;5094053;28;20031;-68
2023/07/03 10:33:54;;;;;;;17.45;4.82;;;23.40;99.90;;;;;;5099215;28;20486;-68
2023/07/03 10:36:26;;;;;;;13.68;4.90;;;23.60;99.90;;;;;;5089733;28;20031;-67
2023/07/03 10:39:17;;;;;;;12.13;4.40;;;23.80;99.90;;;;;;5095302;28;20023;-69
2023/07/03 10:41:49;;;;;;;9.65;3.90;;;23.50;99.90;;;;;;5098992;28;20027;-68
2023/07/03 10:44:29;;;;;;;8.13;4.00;;;23.20;99.90;;;;;;5097576;28;20590;-68
2023/07/03 10:47:02;;;;;;;14.32;4.22;;;23.10;99.90;;;;;;5093793;28;20043;-67
2023/07/03 10:49:31;;;;;;;9.25;4.45;;;22.90;99.90;;;;;;5095081;28;20020;-68
2023/07/03 10:52:18;;;;;;;12.63;4.55;;;22.90;99.90;;;;;;5078164;28;20015;-68
2023/07/03 10:54:56;;;;;;;9.75;4.03;;;22.80;99.90;;;;;;5094815;28;20494;-67
2023/07/03 10:57:42;;;;;;;11.45;4.57;;;22.70;99.90;;;;;;5098356;28;20032;-68
2023/07/03 11:00:14;;;;;;;7.97;3.65;;;22.60;99.90;;;;;;5098096;28;20121;-68
2023/07/03 11:02:44;;;;;;;12.93;4.57;;;22.70;99.90;;;;;;5098059;28;20413;-68
2023/07/03 11:05:36;;;;;;;14.52;4.97;;;22.80;99.90;;;;;;5097098;28;20111;-67
2023/07/03 11:08:49;;;;;;;15.30;5.22;;;22.80;99.90;;;;;;5093657;28;20057;-67
2023/07/03 11:11:35;;;;;;;14.35;4.53;;;23.00;99.90;;;;;;5094331;28;20032;-68
2023/07/03 11:14:18;;;;;;;9.27;3.67;;;23.20;99.90;;;;;;5094953;27;20072;-67
2023/07/03 11:17:01;;;;;;;16.48;3.53;;;23.60;99.90;;;;;;5102388;28;20042;-68
2023/07/03 11:19:36;;;;;;;8.95;3.20;;;24.00;99.90;;;;;;5093306;28;20384;-67
2023/07/03 11:22:29;;;;;;;12.80;3.95;;;24.30;99.90;;;;;;5095812;28;20028;-67
2023/07/03 11:25:20;;;;;;;8.25;3.47;;;24.40;99.90;;;;;;5095614;28;20032;-67
2023/07/03 11:28:01;;;;;;;10.18;3.42;;;24.70;99.90;;;;;;5086168;28;20035;-67
2023/07/03 11:30:27;;;;;;;6.05;2.53;;;24.90;99.90;;;;;;5094712;28;20059;-68
2023/07/03 11:32:57;;;;;;;7.80;2.22;;;25.00;99.30;;;;;;5088288;28;20155;-70
2023/07/03 11:35:23;;;;;;;8.60;2.50;;;24.50;98.70;;;;;;5085881;28;20116;-68
2023/07/03 11:37:58;;;;;;;8.00;2.60;;;24.40;99.20;;;;;;5095466;28;20032;-68
2023/07/03 11:40:27;;;;;;;9.30;3.05;;;24.10;99.30;;;;;;5085284;28;20024;-68
2023/07/03 11:43:19;;;;;;;10.32;2.90;;;23.80;99.40;;;;;;5092937;28;20028;-67
2023/07/03 11:45:57;;;;;;;10.88;2.70;;;23.80;99.80;;;;;;5088967;28;20020;-66
2023/07/03 11:48:36;;;;;;;5.75;2.50;;;24.10;99.90;;;;;;5096350;28;20106;-68
2023/07/03 11:51:08;;;;;;;7.10;2.75;;;24.20;99.90;;;;;;5094714;28;20028;-66
2023/07/03 11:53:39;;;;;;;10.93;3.35;;;24.20;99.50;;;;;;5093833;28;20146;-67
2023/07/03 11:56:31;;;;;;;7.63;2.70;;;24.20;99.00;;;;;;5091618;28;20044;-67
2023/07/03 11:59:11;;;;;;;8.48;2.75;;;23.90;98.30;;;;;;5092756;28;20047;-66
2023/07/03 12:01:37;;;;;;;12.75;2.90;;;23.70;99.20;;;;;;5095266;28;20045;-66
2023/07/03 12:04:10;;;;;;;18.38;3.33;;;23.50;99.40;;;;;;5088945;28;20032;-67
2023/07/03 12:06:39;;;;;;;15.13;3.92;;;23.70;99.90;;;;;;5089627;28;20062;-67
2023/07/03 12:09:30;;;;;;;12.95;3.13;;;23.70;99.70;;;;;;5088600;28;20028;-67
2023/07/03 12:12:06;;;;;;;7.47;2.63;;;24.00;99.90;;;;;;5095990;28;20019;-67
2023/07/03 12:14:42;;;;;;;9.93;3.00;;;24.40;99.70;;;;;;5092336;28;20035;-67
2023/07/03 12:17:37;;;;;;;9.40;2.65;;;24.50;99.90;;;;;;5090086;28;20042;-67
2023/07/03 12:20:19;;;;;;;11.07;3.20;;;24.30;99.90;;;;;;5087209;28;20028;-67
2023/07/03 12:22:53;;;;;;;13.18;3.08;;;24.00;98.60;;;;;;5084964;28;20028;-67
2023/07/03 12:25:29;;;;;;;14.30;3.08;;;23.90;98.80;;;;;;5086673;28;20021;-67
2023/07/03 12:28:09;;;;;;;13.35;3.15;;;23.80;99.00;;;;;;5098735;28;20036;-67
2023/07/03 12:30:36;;;;;;;10.32;2.92;;;23.60;99.20;;;;;;5093962;28;20024;-67
2023/07/03 12:33:02;;;;;;;11.65;2.97;;;23.60;99.90;;;;;;5097943;28;20065;-67
2023/07/03 12:35:35;;;;;;;7.82;3.00;;;23.60;99.90;;;;;;5093638;28;20020;-68
2023/07/03 12:38:09;;;;;;;9.15;2.88;;;23.80;99.90;;;;;;5091422;28;20092;-68
2023/07/03 12:40:42;;;;;;;8.68;3.10;;;24.10;99.90;;;;;;5089953;28;20019;-67
2023/07/03 12:43:17;;;;;;;9.65;3.30;;;24.30;99.90;;;;;;5096353;28;20019;-67
2023/07/03 12:45:51;;;;;;;14.30;3.25;;;24.40;99.90;;;;;;5086295;28;20020;-66
2023/07/03 12:48:21;;;;;;;11.77;3.55;;;24.30;98.60;;;;;;5088294;28;20110;-69
2023/07/03 12:50:53;;;;;;;12.85;2.92;;;24.00;99.70;;;;;;5075589;28;20023;-69
2023/07/03 12:53:19;;;;;;;10.48;3.38;;;23.90;99.90;;;;;;5089680;28;20020;-67
2023/07/03 12:55:57;;;;;;;11.70;3.30;;;24.00;99.90;;;;;;5093387;28;20016;-67
2023/07/03 12:58:25;;;;;;;10.25;3.50;;;23.90;99.90;;;;;;5088451;28;20040;-68
2023/07/03 13:01:02;;;;;;;11.38;3.70;;;24.00;99.90;;;;;;5093484;28;20024;-67
2023/07/03 13:03:27;;;;;;;12.15;3.88;;;23.90;99.90;;;;;;5093438;28;20598;-67
2023/07/03 13:05:53;;;;;;;12.90;4.05;;;23.80;99.90;;;;;;5090512;28;20154;-67
2023/07/03 13:08:19;;;;;;;14.05;4.03;;;23.90;99.90;;;;;;5090680;28;20032;-66
2023/07/03 13:11:03;;;;;;;14.82;4.03;;;23.80;99.90;;;;;;5095710;28;20872;-66